createdAt,value
2019-06-26T00:01:41.450Z,7.37
2019-06-26T00:04:11.263Z,9.43
2019-06-26T00:06:41.136Z,8.07
2019-06-26T00:09:12.004Z,7.50
2019-06-26T00:11:41.880Z,7.80
2019-06-26T00:14:11.743Z,8.53
2019-06-26T00:16:42.822Z,11.13
2019-06-26T00:19:12.650Z,6.97
2019-06-26T00:21:42.478Z,7.27
2019-06-26T00:24:12.281Z,7.57
2019-06-26T00:26:42.161Z,7.90
2019-06-26T00:29:12.045Z,8.23
2019-06-26T00:31:41.992Z,7.27
2019-06-26T00:34:11.812Z,7.40
2019-06-26T00:36:41.643Z,6.97
2019-06-26T00:39:12.968Z,6.83
2019-06-26T00:41:42.846Z,8.40
2019-06-26T00:44:12.656Z,8.00
2019-06-26T00:46:42.507Z,5.93
2019-06-26T00:49:12.417Z,6.73
2019-06-26T00:51:42.661Z,5.30
2019-06-26T00:54:12.462Z,9.37
2019-06-26T00:56:42.338Z,5.73
2019-06-26T00:59:12.196Z,9.77
2019-06-26T01:01:42.132Z,6.93
2019-06-26T01:04:16.662Z,8.47
2019-06-26T01:06:46.441Z,8.50
2019-06-26T01:09:16.667Z,9.10
2019-06-26T01:11:46.716Z,8.10
2019-06-26T01:14:16.625Z,9.37
2019-06-26T01:16:46.513Z,9.23
2019-06-26T01:19:16.338Z,8.40
2019-06-26T01:21:46.169Z,11.23
2019-06-26T01:24:16.010Z,9.93
2019-06-26T01:26:45.914Z,10.97
2019-06-26T01:29:15.757Z,7.57
2019-06-26T01:31:45.906Z,7.53
2019-06-26T01:34:15.801Z,9.10
2019-06-26T01:36:45.575Z,7.93
2019-06-26T01:39:15.389Z,7.27
2019-06-26T01:41:45.404Z,10.70
2019-06-26T01:44:15.772Z,6.97
2019-06-26T01:46:45.662Z,12.33
2019-06-26T01:49:15.515Z,13.77
2019-06-26T01:51:46.049Z,7.70
2019-06-26T01:54:15.888Z,7.83
2019-06-26T01:56:45.781Z,9.77
2019-06-26T01:59:15.588Z,8.50
2019-06-26T02:01:45.386Z,8.50
2019-06-26T02:04:15.787Z,8.47
2019-06-26T02:06:46.006Z,7.80
2019-06-26T02:09:15.787Z,9.97
2019-06-26T02:11:45.806Z,8.83
2019-06-26T02:14:29.953Z,6.73
2019-06-26T02:16:47.127Z,6.60
2019-06-26T02:19:18.275Z,11.70
2019-06-26T02:21:48.136Z,21.77
2019-06-26T02:24:18.175Z,6.93
2019-06-26T02:26:48.117Z,11.47
2019-06-26T02:29:18.346Z,13.37
2019-06-26T02:31:48.174Z,12.93
2019-06-26T02:34:18.059Z,8.73
2019-06-26T02:36:47.909Z,8.07
2019-06-26T02:39:17.756Z,10.67
2019-06-26T02:41:47.593Z,9.93
2019-06-26T02:44:17.478Z,12.47
2019-06-26T02:46:47.267Z,12.80
2019-06-26T02:49:17.305Z,13.23
2019-06-26T02:51:47.630Z,11.13
2019-06-26T02:54:17.507Z,13.03
2019-06-26T02:56:47.363Z,14.37
2019-06-26T02:59:17.199Z,10.50
2019-06-26T03:01:47.058Z,7.77
2019-06-26T03:04:16.893Z,8.70
2019-06-26T03:06:46.784Z,10.13
2019-06-26T03:09:16.705Z,7.20
2019-06-26T03:11:46.550Z,8.33
2019-06-26T03:14:16.381Z,7.97
2019-06-26T03:16:46.238Z,9.10
2019-06-26T03:19:16.111Z,11.17
2019-06-26T03:21:45.886Z,9.83
2019-06-26T03:24:15.755Z,15.80
2019-06-26T03:26:45.692Z,9.83
2019-06-26T03:29:15.570Z,11.27
2019-06-26T03:31:45.434Z,10.27
2019-06-26T03:34:15.337Z,11.20
2019-06-26T03:36:45.172Z,12.30
2019-06-26T03:39:14.961Z,11.93
2019-06-26T03:41:44.839Z,13.07
2019-06-26T03:44:14.672Z,13.00
2019-06-26T03:46:44.559Z,11.70
2019-06-26T03:49:14.467Z,12.60
2019-06-26T03:51:44.313Z,10.60
2019-06-26T03:54:14.621Z,10.03
2019-06-26T03:56:44.509Z,11.97
2019-06-26T03:59:14.346Z,11.30
2019-06-26T04:01:44.187Z,13.90
2019-06-26T04:04:14.024Z,16.97
2019-06-26T04:06:43.892Z,13.97
2019-06-26T04:09:14.056Z,16.93
2019-06-26T04:11:44.176Z,11.47
2019-06-26T04:14:14.005Z,15.53
2019-06-26T04:16:45.008Z,10.83
2019-06-26T04:19:15.009Z,12.47
2019-06-26T04:21:44.910Z,13.67
2019-06-26T04:24:14.796Z,10.87
2019-06-26T04:26:44.614Z,9.73
2019-06-26T04:29:14.439Z,10.70
2019-06-26T04:31:44.295Z,9.90
2019-06-26T04:34:14.166Z,9.77
2019-06-26T04:36:43.999Z,12.57
2019-06-26T04:39:13.846Z,13.90
2019-06-26T04:41:43.742Z,11.67
2019-06-26T04:44:13.510Z,12.03
2019-06-26T04:46:43.427Z,11.67
2019-06-26T04:49:13.424Z,12.40
2019-06-26T04:51:43.217Z,13.63
2019-06-26T04:54:12.995Z,9.77
2019-06-26T04:56:43.103Z,10.83
2019-06-26T04:59:12.946Z,10.47
2019-06-26T05:01:43.743Z,10.07
2019-06-26T05:04:13.640Z,12.30
2019-06-26T05:06:43.460Z,12.27
2019-06-26T05:09:13.605Z,10.67
2019-06-26T05:11:43.540Z,10.57
2019-06-26T05:14:13.395Z,12.13
2019-06-26T05:16:43.209Z,13.77
2019-06-26T05:19:13.039Z,12.73
2019-06-26T05:21:42.898Z,10.57
2019-06-26T05:24:13.074Z,9.80
2019-06-26T05:26:43.038Z,12.57
2019-06-26T05:29:12.846Z,10.47
2019-06-26T05:31:42.714Z,11.33
2019-06-26T05:34:12.605Z,11.83
2019-06-26T05:36:42.594Z,10.80
2019-06-26T05:39:12.403Z,10.93
2019-06-26T05:41:42.221Z,9.20
2019-06-26T05:44:12.108Z,10.30
2019-06-26T05:46:41.935Z,9.67
2019-06-26T05:49:11.804Z,10.70
2019-06-26T05:51:41.662Z,10.13
2019-06-26T05:54:11.496Z,11.10
2019-06-26T05:56:41.338Z,10.40
2019-06-26T05:59:11.166Z,10.67
2019-06-26T06:01:41.058Z,10.77
2019-06-26T06:04:10.923Z,9.23
2019-06-26T06:06:42.245Z,10.80
2019-06-26T06:09:12.254Z,11.27
2019-06-26T06:11:42.301Z,10.27
2019-06-26T06:14:12.123Z,10.73
2019-06-26T06:16:47.354Z,9.83
2019-06-26T06:19:13.457Z,10.37
2019-06-26T06:21:43.345Z,9.27
2019-06-26T06:24:13.151Z,9.57
2019-06-26T06:26:43.457Z,9.73
2019-06-26T06:29:13.375Z,8.77
2019-06-26T06:31:43.165Z,9.93
2019-06-26T06:34:13.082Z,10.77
2019-06-26T06:36:42.943Z,11.07
2019-06-26T06:39:12.771Z,10.03
2019-06-26T06:41:43.557Z,11.87
2019-06-26T06:44:13.695Z,9.30
2019-06-26T06:46:43.537Z,10.27
2019-06-26T06:49:13.401Z,9.60
2019-06-26T06:51:43.274Z,10.37
2019-06-26T06:54:13.147Z,11.77
2019-06-26T06:56:42.995Z,10.63
2019-06-26T06:59:12.817Z,9.77
2019-06-26T07:01:42.698Z,16.03
2019-06-26T07:04:12.557Z,11.23
2019-06-26T07:06:42.406Z,11.40
2019-06-26T07:09:12.319Z,11.40
2019-06-26T07:11:42.142Z,9.83
2019-06-26T07:14:12.067Z,9.53
2019-06-26T07:16:41.953Z,12.23
2019-06-26T07:19:11.975Z,12.40
2019-06-26T07:21:41.817Z,11.13
2019-06-26T07:24:11.712Z,12.70
2019-06-26T07:26:41.585Z,10.07
2019-06-26T07:29:11.613Z,9.37
2019-06-26T07:31:41.838Z,9.03
2019-06-26T07:34:11.759Z,8.90
2019-06-26T07:36:41.565Z,9.90
2019-06-26T07:39:11.495Z,9.93
2019-06-26T07:41:41.407Z,8.80
2019-06-26T07:44:11.205Z,9.17
2019-06-26T07:46:41.117Z,11.23
2019-06-26T07:49:10.992Z,8.33
2019-06-26T07:51:40.879Z,7.23
2019-06-26T07:54:10.680Z,8.63
2019-06-26T07:56:40.869Z,11.13
2019-06-26T07:59:10.703Z,7.87
2019-06-26T08:01:40.778Z,7.37
2019-06-26T08:04:10.682Z,6.57
2019-06-26T08:06:40.678Z,7.57
2019-06-26T08:09:10.804Z,7.13
2019-06-26T08:11:40.685Z,7.10
2019-06-26T08:14:10.484Z,7.97
2019-06-26T08:16:40.311Z,9.03
2019-06-26T08:19:10.246Z,7.40
2019-06-26T08:21:40.069Z,10.20
2019-06-26T08:24:10.024Z,7.40
2019-06-26T08:26:39.888Z,7.10
2019-06-26T08:29:09.681Z,6.93
2019-06-26T08:31:39.835Z,6.23
2019-06-26T08:34:09.841Z,6.87
2019-06-26T08:36:39.752Z,6.00
2019-06-26T08:39:09.564Z,5.90
2019-06-26T08:41:39.465Z,8.53
2019-06-26T08:44:09.341Z,5.67
2019-06-26T08:46:39.157Z,5.63
2019-06-26T08:49:24.255Z,6.07
2019-06-26T08:51:40.613Z,5.50
2019-06-26T08:54:10.485Z,6.80
2019-06-26T08:56:40.390Z,6.90
2019-06-26T08:59:10.192Z,6.07
2019-06-26T09:01:40.040Z,5.50
2019-06-26T09:04:09.910Z,6.40
2019-06-26T09:06:39.746Z,7.33
2019-06-26T09:09:09.689Z,6.10
2019-06-26T09:11:39.742Z,6.13
2019-06-26T09:14:09.501Z,6.17
2019-06-26T09:16:39.369Z,8.03
2019-06-26T09:19:09.286Z,6.33
2019-06-26T09:21:39.112Z,6.20
2019-06-26T09:24:09.102Z,5.87
2019-06-26T09:26:39.322Z,5.30
2019-06-26T09:29:09.374Z,5.77
2019-06-26T09:31:39.165Z,5.10
2019-06-26T09:34:09.449Z,7.20
2019-06-26T09:36:39.335Z,5.07
2019-06-26T09:39:09.420Z,5.47
2019-06-26T09:41:39.257Z,5.73
2019-06-26T09:44:09.131Z,10.30
2019-06-26T09:46:38.930Z,8.43
2019-06-26T09:49:08.821Z,6.17
2019-06-26T09:51:38.695Z,5.87
2019-06-26T09:54:08.515Z,6.47
2019-06-26T09:56:38.350Z,6.57
2019-06-26T09:59:08.186Z,5.47
2019-06-26T10:01:38.075Z,5.77
2019-06-26T10:04:07.904Z,5.47
2019-06-26T10:06:37.815Z,6.70
2019-06-26T10:09:08.770Z,8.03
2019-06-26T10:11:38.599Z,5.47
2019-06-26T10:14:08.370Z,5.90
2019-06-26T10:16:38.280Z,7.83
2019-06-26T10:19:10.577Z,6.67
2019-06-26T10:21:39.681Z,6.53
2019-06-26T10:24:09.535Z,6.20
2019-06-26T10:26:39.381Z,17.53
2019-06-26T10:29:09.185Z,13.83
2019-06-26T10:31:39.172Z,5.20
2019-06-26T10:34:10.112Z,5.87
2019-06-26T10:36:40.918Z,8.90
2019-06-26T10:39:10.762Z,5.53
2019-06-26T10:41:40.679Z,7.27
2019-06-26T10:44:10.772Z,5.20
2019-06-26T10:46:40.626Z,7.13
2019-06-26T10:49:25.862Z,10.90
2019-06-26T10:51:42.139Z,6.30
2019-06-26T10:54:12.006Z,4.97
2019-06-26T10:56:41.935Z,5.13
2019-06-26T10:59:12.039Z,5.30
2019-06-26T11:01:42.029Z,4.90
2019-06-26T11:04:11.928Z,4.77
2019-06-26T11:06:42.396Z,5.97
2019-06-26T11:09:12.202Z,5.40
2019-06-26T11:11:42.130Z,6.10
2019-06-26T11:14:12.673Z,3.67
2019-06-26T11:16:42.459Z,3.83
2019-06-26T11:19:12.345Z,4.27
2019-06-26T11:21:42.619Z,3.93
2019-06-26T11:24:12.439Z,3.33
2019-06-26T11:26:42.490Z,4.63
2019-06-26T11:29:13.047Z,3.67
2019-06-26T11:31:42.943Z,3.73
2019-06-26T11:34:12.831Z,3.80
2019-06-26T11:36:42.791Z,3.60
2019-06-26T11:39:12.637Z,3.47
2019-06-26T11:41:42.575Z,3.27
2019-06-26T11:44:12.558Z,3.20
2019-06-26T11:46:42.526Z,4.33
2019-06-26T11:49:12.695Z,3.70
2019-06-26T11:51:43.118Z,3.60
2019-06-26T11:54:12.964Z,4.13
2019-06-26T11:56:42.933Z,3.43
2019-06-26T11:59:12.962Z,5.30
2019-06-26T12:01:42.771Z,3.60
2019-06-26T12:04:12.710Z,3.17
2019-06-26T12:06:45.877Z,3.50
2019-06-26T12:09:14.348Z,4.30
2019-06-26T12:11:44.492Z,3.40
2019-06-26T12:14:14.349Z,3.20
2019-06-26T12:16:44.246Z,5.20
2019-06-26T12:19:14.565Z,3.00
2019-06-26T12:21:44.436Z,3.73
2019-06-26T12:24:14.308Z,4.77
2019-06-26T12:26:44.712Z,4.90
2019-06-26T12:29:14.658Z,4.80
2019-06-26T12:31:44.531Z,3.67
2019-06-26T12:34:14.726Z,3.27
2019-06-26T12:36:44.832Z,3.50
2019-06-26T12:39:14.675Z,2.77
2019-06-26T12:41:44.888Z,3.00
2019-06-26T12:44:15.022Z,3.27
2019-06-26T12:46:44.839Z,2.63
2019-06-26T12:49:14.826Z,2.53
2019-06-26T12:51:44.727Z,3.37
2019-06-26T12:54:14.580Z,2.53
2019-06-26T12:56:44.795Z,2.67
2019-06-26T12:59:14.794Z,2.90
2019-06-26T13:01:44.724Z,4.10
2019-06-26T13:04:14.673Z,2.90
2019-06-26T13:06:44.543Z,3.03
2019-06-26T13:09:14.398Z,2.77
2019-06-26T13:11:44.595Z,6.20
2019-06-26T13:14:14.426Z,2.80
2019-06-26T13:16:44.319Z,2.70
2019-06-26T13:19:14.469Z,3.63
2019-06-26T13:21:44.715Z,2.87
2019-06-26T13:24:14.579Z,2.75
2019-06-26T13:26:44.829Z,2.57
2019-06-26T13:29:14.691Z,2.57
2019-06-26T13:31:44.507Z,2.70
2019-06-26T13:34:14.761Z,3.30
2019-06-26T13:36:44.608Z,2.67
2019-06-26T13:39:14.467Z,2.73
2019-06-26T13:41:44.537Z,2.70
2019-06-26T13:44:14.405Z,3.13
2019-06-26T13:46:44.217Z,2.50
2019-06-26T13:49:16.623Z,4.23
2019-06-26T13:51:46.067Z,2.60
2019-06-26T13:54:16.348Z,2.50
2019-06-26T13:56:46.361Z,2.63
2019-06-26T13:59:16.152Z,2.70
2019-06-26T14:01:46.348Z,2.70
2019-06-26T14:04:16.223Z,2.70
2019-06-26T14:06:46.088Z,2.70
2019-06-26T14:09:16.121Z,3.40
2019-06-26T14:11:45.967Z,2.57
2019-06-26T14:14:16.113Z,2.70
2019-06-26T14:16:46.855Z,2.83
2019-06-26T14:19:16.780Z,3.17
2019-06-26T14:21:46.525Z,2.40
2019-06-26T14:24:16.515Z,3.90
2019-06-26T14:26:46.354Z,2.50
2019-06-26T14:29:20.789Z,3.17
2019-06-26T14:31:48.179Z,2.70
2019-06-26T14:34:18.083Z,2.30
2019-06-26T14:36:47.874Z,2.63
2019-06-26T14:39:18.090Z,2.67
2019-06-26T14:41:48.035Z,2.70
2019-06-26T14:44:17.857Z,2.60
2019-06-26T14:46:48.339Z,2.90
2019-06-26T14:49:18.238Z,3.73
2019-06-26T14:51:48.198Z,2.20
2019-06-26T14:54:18.138Z,2.97
2019-06-26T14:56:48.038Z,2.07
2019-06-26T14:59:17.982Z,4.63
2019-06-26T15:01:47.986Z,3.17
2019-06-26T15:04:17.895Z,2.30
2019-06-26T15:06:47.695Z,2.30
2019-06-26T15:09:17.681Z,2.23
2019-06-26T15:11:47.595Z,4.57
2019-06-26T15:14:17.698Z,3.87
2019-06-26T15:16:47.742Z,2.40
2019-06-26T15:19:17.553Z,2.60
2019-06-26T15:21:57.887Z,2.20
2019-06-26T15:24:19.339Z,2.20
2019-06-26T15:26:49.281Z,2.20
2019-06-26T15:29:19.091Z,2.27
2019-06-26T15:31:49.179Z,3.23
2019-06-26T15:34:19.052Z,3.10
2019-06-26T15:36:48.959Z,2.43
2019-06-26T15:39:19.165Z,2.40
2019-06-26T15:41:49.025Z,2.30
2019-06-26T15:44:18.895Z,2.47
2019-06-26T15:46:48.896Z,2.27
2019-06-26T15:49:18.742Z,2.33
2019-06-26T15:51:48.598Z,2.20
2019-06-26T15:54:18.652Z,2.27
2019-06-26T15:56:48.494Z,2.50
2019-06-26T15:59:18.352Z,2.23
2019-06-26T16:01:48.378Z,2.40
2019-06-26T16:04:18.260Z,2.20
2019-06-26T16:06:48.785Z,2.20
2019-06-26T16:09:18.949Z,3.53
2019-06-26T16:11:48.856Z,2.30
2019-06-26T16:14:18.747Z,2.70
2019-06-26T16:16:50.252Z,2.07
2019-06-26T16:19:20.767Z,2.17
2019-06-26T16:21:50.611Z,2.03
2019-06-26T16:24:20.701Z,2.53
2019-06-26T16:26:50.811Z,1.90
2019-06-26T16:29:20.672Z,1.60
2019-06-26T16:31:50.872Z,2.30
2019-06-26T16:34:20.876Z,1.90
2019-06-26T16:36:50.741Z,2.17
2019-06-26T16:39:22.638Z,1.70
2019-06-26T16:41:52.798Z,1.60
2019-06-26T16:44:22.812Z,1.57
2019-06-26T16:46:53.011Z,1.70
2019-06-26T16:49:22.912Z,1.97
2019-06-26T16:51:52.844Z,2.07
2019-06-26T16:54:23.074Z,2.00
2019-06-26T16:56:52.968Z,1.60
2019-06-26T16:59:22.857Z,1.70
2019-06-26T17:01:53.124Z,1.70
2019-06-26T17:04:23.039Z,1.73
2019-06-26T17:06:52.884Z,1.50
2019-06-26T17:09:22.865Z,1.67
2019-06-26T17:11:52.776Z,1.40
2019-06-26T17:14:22.660Z,1.40
2019-06-26T17:16:52.921Z,1.83
2019-06-26T17:19:22.759Z,1.50
2019-06-26T17:21:52.701Z,1.60
2019-06-26T17:24:23.090Z,1.90
2019-06-26T17:26:53.284Z,1.47
2019-06-26T17:29:23.118Z,1.70
2019-06-26T17:31:53.346Z,1.53
2019-06-26T17:34:23.242Z,1.50
2019-06-26T17:36:54.593Z,2.70
2019-06-26T17:39:24.413Z,1.40
2019-06-26T17:41:54.807Z,1.23
2019-06-26T17:44:24.875Z,1.47
2019-06-26T17:46:54.873Z,1.90
2019-06-26T17:49:24.769Z,1.33
2019-06-26T17:51:54.850Z,1.40
2019-06-26T17:54:24.693Z,2.50
2019-06-26T17:56:55.288Z,1.90
2019-06-26T17:59:25.218Z,1.60
2019-06-26T18:01:55.043Z,1.50
2019-06-26T18:04:24.964Z,1.40
2019-06-26T18:06:55.105Z,2.20
2019-06-26T18:09:24.968Z,1.57
2019-06-26T18:11:55.295Z,1.63
2019-06-26T18:14:25.597Z,1.50
2019-06-26T18:16:55.418Z,2.80
2019-06-26T18:19:25.250Z,1.63
2019-06-26T18:21:55.607Z,1.60
2019-06-26T18:24:25.715Z,1.53
2019-06-26T18:26:56.299Z,1.67
2019-06-26T18:29:26.459Z,1.40
2019-06-26T18:31:56.401Z,3.63
2019-06-26T18:34:26.371Z,1.70
2019-06-26T18:36:56.556Z,1.80
2019-06-26T18:39:26.447Z,1.70
2019-06-26T18:41:57.012Z,3.40
2019-06-26T18:44:27.537Z,1.67
2019-06-26T18:46:57.410Z,1.87
2019-06-26T18:49:27.520Z,1.83
2019-06-26T18:51:57.383Z,2.20
2019-06-26T18:54:27.215Z,2.93
2019-06-26T18:56:57.827Z,2.33
2019-06-26T18:59:27.662Z,2.87
2019-06-26T19:01:57.574Z,2.20
2019-06-26T19:04:27.873Z,2.27
2019-06-26T19:06:57.749Z,1.70
2019-06-26T19:09:27.587Z,1.83
2019-06-26T19:11:57.811Z,1.90
2019-06-26T19:14:27.609Z,1.90
2019-06-26T19:16:57.502Z,1.40
2019-06-26T19:19:27.703Z,1.87
2019-06-26T19:21:57.498Z,1.60
2019-06-26T19:24:27.374Z,1.60
2019-06-26T19:26:57.390Z,2.73
2019-06-26T19:29:27.272Z,1.90
2019-06-26T19:31:57.133Z,3.27
2019-06-26T19:34:27.308Z,2.13
2019-06-26T19:36:57.106Z,1.80
2019-06-26T19:39:27.158Z,1.63
2019-06-26T19:41:57.234Z,3.17
2019-06-26T19:44:27.070Z,3.77
2019-06-26T19:46:57.372Z,1.93
2019-06-26T19:49:27.927Z,3.07
2019-06-26T19:51:57.758Z,2.30
2019-06-26T19:54:31.911Z,4.40
2019-06-26T19:56:59.371Z,2.50
2019-06-26T19:59:29.355Z,3.73
2019-06-26T20:01:59.159Z,2.50
2019-06-26T20:04:29.190Z,4.63
2019-06-26T20:06:59.144Z,2.80
2019-06-26T20:09:28.947Z,3.87
2019-06-26T20:11:59.315Z,4.70
2019-06-26T20:14:29.189Z,2.33
2019-06-26T20:16:58.983Z,2.53
2019-06-26T20:19:29.146Z,3.13
2019-06-26T20:21:59.036Z,2.93
2019-06-26T20:24:42.993Z,2.53
2019-06-26T20:27:00.952Z,5.23
2019-06-26T20:29:30.822Z,7.93
2019-06-26T20:32:00.918Z,6.23
2019-06-26T20:34:31.010Z,3.37
2019-06-26T20:37:00.870Z,4.03
2019-06-26T20:39:30.710Z,5.43
2019-06-26T20:42:01.141Z,3.93
2019-06-26T20:44:31.139Z,4.37
2019-06-26T20:47:00.983Z,3.67
2019-06-26T20:49:31.090Z,4.13
2019-06-26T20:52:00.970Z,4.47
2019-06-26T20:54:30.828Z,6.23
2019-06-26T20:57:01.047Z,4.47
2019-06-26T20:59:30.882Z,4.90
2019-06-26T21:02:00.760Z,5.53
2019-06-26T21:04:30.990Z,5.30
2019-06-26T21:07:03.989Z,4.63
2019-06-26T21:09:34.012Z,4.87
2019-06-26T21:12:03.817Z,4.30
2019-06-26T21:14:33.654Z,7.10
2019-06-26T21:17:03.681Z,3.70
2019-06-26T21:19:33.636Z,4.23
2019-06-26T21:22:03.454Z,4.80
2019-06-26T21:24:33.437Z,4.13
2019-06-26T21:27:03.284Z,4.40
2019-06-26T21:29:33.144Z,3.97
2019-06-26T21:32:03.367Z,7.03
2019-06-26T21:34:33.194Z,7.47
2019-06-26T21:37:03.067Z,9.47
2019-06-26T21:39:33.309Z,4.70
2019-06-26T21:42:03.239Z,5.10
2019-06-26T21:44:33.128Z,5.67
2019-06-26T21:47:03.356Z,5.43
2019-06-26T21:49:33.146Z,4.53
2019-06-26T21:52:03.003Z,7.13
2019-06-26T21:54:33.716Z,4.80
2019-06-26T21:57:03.611Z,5.00
2019-06-26T21:59:33.476Z,5.00
2019-06-26T22:02:03.768Z,5.20
2019-06-26T22:04:33.633Z,5.43
2019-06-26T22:07:03.526Z,9.20
2019-06-26T22:09:33.554Z,5.87
2019-06-26T22:12:03.588Z,6.83
2019-06-26T22:14:33.628Z,5.57
2019-06-26T22:17:03.713Z,5.77
2019-06-26T22:19:33.502Z,5.67
2019-06-26T22:22:03.454Z,6.00
2019-06-26T22:24:33.407Z,5.57
2019-06-26T22:27:03.918Z,6.27
2019-06-26T22:29:33.780Z,7.13
2019-06-26T22:32:03.808Z,5.70
2019-06-26T22:34:33.629Z,6.07
2019-06-26T22:37:03.475Z,7.07
2019-06-26T22:39:33.544Z,8.73
2019-06-26T22:42:03.349Z,6.97
2019-06-26T22:44:33.253Z,7.27
2019-06-26T22:47:03.435Z,9.80
2019-06-26T22:49:33.353Z,8.63
2019-06-26T22:52:03.171Z,9.23
2019-06-26T22:54:33.422Z,6.70
2019-06-26T22:57:03.308Z,6.90
2019-06-26T22:59:33.176Z,20.43
2019-06-26T23:02:03.475Z,9.23
2019-06-26T23:04:33.363Z,5.87
2019-06-26T23:07:03.243Z,6.70
2019-06-26T23:09:33.599Z,8.23
2019-06-26T23:12:03.531Z,8.70
2019-06-26T23:14:33.454Z,8.50
2019-06-26T23:17:03.468Z,8.00
2019-06-26T23:19:33.329Z,7.17
2019-06-26T23:22:03.192Z,7.60
2019-06-26T23:24:33.447Z,6.37
2019-06-26T23:27:03.392Z,7.33
2019-06-26T23:29:33.400Z,7.20
2019-06-26T23:32:03.614Z,5.93
2019-06-26T23:34:33.667Z,7.27
2019-06-26T23:37:03.548Z,8.33
2019-06-26T23:39:33.648Z,6.67
2019-06-26T23:42:03.718Z,6.43
2019-06-26T23:44:33.596Z,8.87
2019-06-26T23:47:03.634Z,6.97
2019-06-26T23:49:33.770Z,4.87
2019-06-26T23:52:03.637Z,4.93
2019-06-26T23:54:33.989Z,6.13
2019-06-26T23:57:03.790Z,12.57
2019-06-26T23:59:33.776Z,5.13
